sensor_id;sensor_type;location;lat;lon;timestamp;temperature;humidity
22321;DHT22;11328;53.928;18.522;2023-02-01T00:01:12;2.60;99.90
22321;DHT22;11328;53.928;18.522;2023-02-01T00:03:40;2.50;99.90
22321;DHT22;11328;53.928;18.522;2023-02-01T00:06:07;2.50;99.90
22321;DHT22;11328;53.928;18.522;2023-02-01T00:08:35;2.50;99.90
22321;DHT22;11328;53.928;18.522;2023-02-01T00:11:05;2.40;99.90
22321;DHT22;11328;53.928;18.522;2023-02-01T00:13:39;2.50;99.90
22321;DHT22;11328;53.928;18.522;2023-02-01T00:16:10;2.40;99.90
22321;DHT22;11328;53.928;18.522;2023-02-01T00:18:47;2.50;99.90
22321;DHT22;11328;53.928;18.522;2023-02-01T00:21:19;2.50;99.90
22321;DHT22;11328;53.928;18.522;2023-02-01T00:23:47;2.50;99.90
22321;DHT22;11328;53.928;18.522;2023-02-01T00:29:09;2.70;99.90
22321;DHT22;11328;53.928;18.522;2023-02-01T00:31:39;2.70;99.90
22321;DHT22;11328;53.928;18.522;2023-02-01T00:34:07;2.70;99.90
22321;DHT22;11328;53.928;18.522;2023-02-01T00:36:39;2.70;99.90
22321;DHT22;11328;53.928;18.522;2023-02-01T00:39:06;2.70;99.90
22321;DHT22;11328;53.928;18.522;2023-02-01T00:41:34;2.70;99.90
22321;DHT22;11328;53.928;18.522;2023-02-01T00:44:01;2.70;99.90
22321;DHT22;11328;53.928;18.522;2023-02-01T00:46:28;2.80;99.90
22321;DHT22;11328;53.928;18.522;2023-02-01T00:48:56;2.70;99.90
22321;DHT22;11328;53.928;18.522;2023-02-01T00:51:26;2.80;99.90
22321;DHT22;11328;53.928;18.522;2023-02-01T00:53:54;2.80;99.90
22321;DHT22;11328;53.928;18.522;2023-02-01T01:10:03;2.80;99.90
22321;DHT22;11328;53.928;18.522;2023-02-01T01:12:30;3.30;99.90
22321;DHT22;11328;53.928;18.522;2023-02-01T01:14:57;3.10;99.90
22321;DHT22;11328;53.928;18.522;2023-02-01T01:17:25;3.10;99.90
22321;DHT22;11328;53.928;18.522;2023-02-01T01:19:52;3.10;99.90
22321;DHT22;11328;53.928;18.522;2023-02-01T01:22:19;3.10;99.90
22321;DHT22;11328;53.928;18.522;2023-02-01T01:24:47;3.10;99.90
22321;DHT22;11328;53.928;18.522;2023-02-01T01:27:14;3.10;99.90
22321;DHT22;11328;53.928;18.522;2023-02-01T01:29:41;3.20;99.90
22321;DHT22;11328;53.928;18.522;2023-02-01T01:32:08;3.20;99.90
22321;DHT22;11328;53.928;18.522;2023-02-01T01:34:36;3.10;99.90
22321;DHT22;11328;53.928;18.522;2023-02-01T01:37:03;3.20;99.90
22321;DHT22;11328;53.928;18.522;2023-02-01T01:39:30;3.20;99.90
22321;DHT22;11328;53.928;18.522;2023-02-01T01:41:57;3.10;99.90
22321;DHT22;11328;53.928;18.522;2023-02-01T01:47:39;3.20;99.90
22321;DHT22;11328;53.928;18.522;2023-02-01T01:50:14;3.20;99.90
22321;DHT22;11328;53.928;18.522;2023-02-01T01:52:47;3.20;99.90
22321;DHT22;11328;53.928;18.522;2023-02-01T01:55:18;3.20;99.90
22321;DHT22;11328;53.928;18.522;2023-02-01T01:57:57;3.30;99.90
22321;DHT22;11328;53.928;18.522;2023-02-01T02:00:29;3.30;99.90
22321;DHT22;11328;53.928;18.522;2023-02-01T02:03:03;3.30;99.90
22321;DHT22;11328;53.928;18.522;2023-02-01T02:05:38;3.30;99.90
22321;DHT22;11328;53.928;18.522;2023-02-01T02:08:06;3.40;99.90
22321;DHT22;11328;53.928;18.522;2023-02-01T02:10:33;3.40;99.90
22321;DHT22;11328;53.928;18.522;2023-02-01T02:13:19;3.30;99.90
22321;DHT22;11328;53.928;18.522;2023-02-01T02:18:55;3.20;99.90
22321;DHT22;11328;53.928;18.522;2023-02-01T02:27:26;3.30;99.90
22321;DHT22;11328;53.928;18.522;2023-02-01T02:36:15;3.20;99.90
22321;DHT22;11328;53.928;18.522;2023-02-01T02:42:17;3.00;99.90
22321;DHT22;11328;53.928;18.522;2023-02-01T02:45:08;3.00;99.90
22321;DHT22;11328;53.928;18.522;2023-02-01T02:48:42;3.00;99.90
22321;DHT22;11328;53.928;18.522;2023-02-01T02:54:45;3.10;99.90
22321;DHT22;11328;53.928;18.522;2023-02-01T02:57:40;3.00;99.90
22321;DHT22;11328;53.928;18.522;2023-02-01T03:00:32;3.00;99.90
22321;DHT22;11328;53.928;18.522;2023-02-01T03:03:20;2.90;99.90
22321;DHT22;11328;53.928;18.522;2023-02-01T03:06:13;3.00;99.90
22321;DHT22;11328;53.928;18.522;2023-02-01T03:08:42;3.00;99.90
22321;DHT22;11328;53.928;18.522;2023-02-01T03:11:15;2.90;99.90
22321;DHT22;11328;53.928;18.522;2023-02-01T03:13:53;3.10;99.90
22321;DHT22;11328;53.928;18.522;2023-02-01T03:19:50;3.10;99.90
22321;DHT22;11328;53.928;18.522;2023-02-01T03:22:24;3.10;99.90
22321;DHT22;11328;53.928;18.522;2023-02-01T03:25:06;3.20;99.90
22321;DHT22;11328;53.928;18.522;2023-02-01T03:28:00;3.10;99.90
22321;DHT22;11328;53.928;18.522;2023-02-01T03:30:51;3.10;99.90
22321;DHT22;11328;53.928;18.522;2023-02-01T03:33:21;3.20;99.90
22321;DHT22;11328;53.928;18.522;2023-02-01T03:43:51;3.10;99.90
22321;DHT22;11328;53.928;18.522;2023-02-01T03:46:39;3.10;99.90
22321;DHT22;11328;53.928;18.522;2023-02-01T03:49:12;3.20;99.90
22321;DHT22;11328;53.928;18.522;2023-02-01T03:51:45;3.10;99.90
22321;DHT22;11328;53.928;18.522;2023-02-01T03:54:15;3.10;99.90
22321;DHT22;11328;53.928;18.522;2023-02-01T03:56:46;3.20;99.90
22321;DHT22;11328;53.928;18.522;2023-02-01T03:59:15;3.00;99.90
22321;DHT22;11328;53.928;18.522;2023-02-01T04:01:42;3.00;99.90
22321;DHT22;11328;53.928;18.522;2023-02-01T04:04:10;3.00;99.90
22321;DHT22;11328;53.928;18.522;2023-02-01T04:06:37;3.00;99.90
22321;DHT22;11328;53.928;18.522;2023-02-01T04:09:06;3.00;99.90
22321;DHT22;11328;53.928;18.522;2023-02-01T04:11:33;3.00;99.90
22321;DHT22;11328;53.928;18.522;2023-02-01T04:14:00;2.90;99.90
22321;DHT22;11328;53.928;18.522;2023-02-01T04:16:31;3.00;99.90
22321;DHT22;11328;53.928;18.522;2023-02-01T04:19:00;2.90;99.90
22321;DHT22;11328;53.928;18.522;2023-02-01T04:21:28;2.90;99.90
22321;DHT22;11328;53.928;18.522;2023-02-01T04:23:55;2.80;99.90
22321;DHT22;11328;53.928;18.522;2023-02-01T04:26:23;2.90;99.90
22321;DHT22;11328;53.928;18.522;2023-02-01T04:28:51;2.90;99.90
22321;DHT22;11328;53.928;18.522;2023-02-01T04:31:19;3.00;99.90
22321;DHT22;11328;53.928;18.522;2023-02-01T04:33:53;2.90;99.90
22321;DHT22;11328;53.928;18.522;2023-02-01T04:36:22;3.00;99.90
22321;DHT22;11328;53.928;18.522;2023-02-01T04:38:50;2.90;99.90
22321;DHT22;11328;53.928;18.522;2023-02-01T04:41:19;2.90;99.90
22321;DHT22;11328;53.928;18.522;2023-02-01T04:43:47;2.90;99.90
22321;DHT22;11328;53.928;18.522;2023-02-01T04:46:16;2.90;99.90
22321;DHT22;11328;53.928;18.522;2023-02-01T04:48:43;2.80;99.90
22321;DHT22;11328;53.928;18.522;2023-02-01T04:51:10;2.80;99.90
22321;DHT22;11328;53.928;18.522;2023-02-01T04:53:39;2.70;99.90
22321;DHT22;11328;53.928;18.522;2023-02-01T04:56:07;2.70;99.90
22321;DHT22;11328;53.928;18.522;2023-02-01T04:58:34;2.60;99.90
22321;DHT22;11328;53.928;18.522;2023-02-01T05:01:05;2.60;99.90
22321;DHT22;11328;53.928;18.522;2023-02-01T05:03:33;2.70;99.90
22321;DHT22;11328;53.928;18.522;2023-02-01T05:06:02;2.70;99.90
22321;DHT22;11328;53.928;18.522;2023-02-01T05:08:32;2.70;99.90
22321;DHT22;11328;53.928;18.522;2023-02-01T05:10:59;2.80;99.90
22321;DHT22;11328;53.928;18.522;2023-02-01T05:13:29;2.80;99.90
22321;DHT22;11328;53.928;18.522;2023-02-01T05:16:16;2.80;99.90
22321;DHT22;11328;53.928;18.522;2023-02-01T05:18:44;2.60;99.90
22321;DHT22;11328;53.928;18.522;2023-02-01T05:21:11;2.60;99.90
22321;DHT22;11328;53.928;18.522;2023-02-01T05:23:38;2.60;99.90
22321;DHT22;11328;53.928;18.522;2023-02-01T05:26:24;2.50;99.90
22321;DHT22;11328;53.928;18.522;2023-02-01T05:28:52;2.50;99.90
22321;DHT22;11328;53.928;18.522;2023-02-01T05:31:19;2.60;99.90
22321;DHT22;11328;53.928;18.522;2023-02-01T05:33:46;2.60;99.90
22321;DHT22;11328;53.928;18.522;2023-02-01T05:36:14;2.60;99.90
22321;DHT22;11328;53.928;18.522;2023-02-01T05:38:41;2.70;99.90
22321;DHT22;11328;53.928;18.522;2023-02-01T05:41:09;2.70;99.90
22321;DHT22;11328;53.928;18.522;2023-02-01T05:43:36;2.70;99.90
22321;DHT22;11328;53.928;18.522;2023-02-01T05:46:04;2.70;99.90
22321;DHT22;11328;53.928;18.522;2023-02-01T05:48:31;2.70;99.90
22321;DHT22;11328;53.928;18.522;2023-02-01T05:50:58;2.50;99.90
22321;DHT22;11328;53.928;18.522;2023-02-01T05:53:25;2.60;99.90
22321;DHT22;11328;53.928;18.522;2023-02-01T05:55:52;2.50;99.90
22321;DHT22;11328;53.928;18.522;2023-02-01T05:58:20;2.40;99.90
22321;DHT22;11328;53.928;18.522;2023-02-01T06:00:47;2.40;99.90
22321;DHT22;11328;53.928;18.522;2023-02-01T06:03:15;2.50;99.90
22321;DHT22;11328;53.928;18.522;2023-02-01T06:05:44;2.40;99.90
22321;DHT22;11328;53.928;18.522;2023-02-01T06:08:12;2.50;99.90
22321;DHT22;11328;53.928;18.522;2023-02-01T06:10:40;2.50;99.90
22321;DHT22;11328;53.928;18.522;2023-02-01T06:13:07;2.50;99.90
22321;DHT22;11328;53.928;18.522;2023-02-01T06:15:35;2.50;99.90
22321;DHT22;11328;53.928;18.522;2023-02-01T06:18:04;2.40;99.90
22321;DHT22;11328;53.928;18.522;2023-02-01T06:20:31;2.60;99.90
22321;DHT22;11328;53.928;18.522;2023-02-01T06:23:01;2.60;99.90
22321;DHT22;11328;53.928;18.522;2023-02-01T06:25:28;2.60;99.90
22321;DHT22;11328;53.928;18.522;2023-02-01T06:27:55;2.60;99.90
22321;DHT22;11328;53.928;18.522;2023-02-01T06:30:26;2.60;99.90
22321;DHT22;11328;53.928;18.522;2023-02-01T06:32:54;2.60;99.90
22321;DHT22;11328;53.928;18.522;2023-02-01T06:35:21;2.50;99.90
22321;DHT22;11328;53.928;18.522;2023-02-01T06:37:49;2.60;99.90
22321;DHT22;11328;53.928;18.522;2023-02-01T06:40:17;2.60;99.90
22321;DHT22;11328;53.928;18.522;2023-02-01T06:42:44;2.70;99.90
22321;DHT22;11328;53.928;18.522;2023-02-01T06:45:11;2.60;99.90
22321;DHT22;11328;53.928;18.522;2023-02-01T06:47:38;2.70;99.90
22321;DHT22;11328;53.928;18.522;2023-02-01T06:50:06;2.70;99.90
22321;DHT22;11328;53.928;18.522;2023-02-01T06:52:35;2.70;99.90
22321;DHT22;11328;53.928;18.522;2023-02-01T06:55:02;2.60;99.90
22321;DHT22;11328;53.928;18.522;2023-02-01T06:57:29;2.70;99.90
22321;DHT22;11328;53.928;18.522;2023-02-01T06:59:59;2.70;99.90
22321;DHT22;11328;53.928;18.522;2023-02-01T07:02:27;2.70;99.90
22321;DHT22;11328;53.928;18.522;2023-02-01T07:04:54;2.80;99.90
22321;DHT22;11328;53.928;18.522;2023-02-01T07:07:21;2.90;99.90
22321;DHT22;11328;53.928;18.522;2023-02-01T07:09:49;2.90;99.90
22321;DHT22;11328;53.928;18.522;2023-02-01T07:12:16;2.90;99.90
22321;DHT22;11328;53.928;18.522;2023-02-01T07:14:45;3.00;99.90
22321;DHT22;11328;53.928;18.522;2023-02-01T07:17:12;3.10;99.90
22321;DHT22;11328;53.928;18.522;2023-02-01T07:19:40;3.10;99.90
22321;DHT22;11328;53.928;18.522;2023-02-01T07:22:07;3.10;99.90
22321;DHT22;11328;53.928;18.522;2023-02-01T07:24:36;3.10;99.90
22321;DHT22;11328;53.928;18.522;2023-02-01T07:27:04;3.20;99.90
22321;DHT22;11328;53.928;18.522;2023-02-01T07:29:31;3.20;99.90
22321;DHT22;11328;53.928;18.522;2023-02-01T07:31:58;3.30;99.90
22321;DHT22;11328;53.928;18.522;2023-02-01T07:34:25;3.20;99.90
22321;DHT22;11328;53.928;18.522;2023-02-01T07:36:53;3.20;99.90
22321;DHT22;11328;53.928;18.522;2023-02-01T07:39:20;3.10;99.90
22321;DHT22;11328;53.928;18.522;2023-02-01T07:41:47;3.20;99.90
22321;DHT22;11328;53.928;18.522;2023-02-01T07:44:14;3.20;99.90
22321;DHT22;11328;53.928;18.522;2023-02-01T07:46:42;3.20;99.90
22321;DHT22;11328;53.928;18.522;2023-02-01T07:49:09;3.30;99.90
22321;DHT22;11328;53.928;18.522;2023-02-01T07:51:36;3.30;99.90
22321;DHT22;11328;53.928;18.522;2023-02-01T07:54:04;3.30;99.90
22321;DHT22;11328;53.928;18.522;2023-02-01T07:56:31;3.40;99.90
22321;DHT22;11328;53.928;18.522;2023-02-01T07:58:58;3.30;99.90
22321;DHT22;11328;53.928;18.522;2023-02-01T08:01:28;3.30;99.90
22321;DHT22;11328;53.928;18.522;2023-02-01T08:03:58;3.30;99.90
22321;DHT22;11328;53.928;18.522;2023-02-01T08:06:31;3.40;99.90
22321;DHT22;11328;53.928;18.522;2023-02-01T08:09:01;3.50;99.90
22321;DHT22;11328;53.928;18.522;2023-02-01T08:11:30;3.50;99.90
22321;DHT22;11328;53.928;18.522;2023-02-01T08:13:58;3.60;99.90
22321;DHT22;11328;53.928;18.522;2023-02-01T08:16:26;3.50;99.90
22321;DHT22;11328;53.928;18.522;2023-02-01T08:19:12;3.60;99.90
22321;DHT22;11328;53.928;18.522;2023-02-01T08:22:05;3.60;99.90
22321;DHT22;11328;53.928;18.522;2023-02-01T08:24:33;3.60;99.90
22321;DHT22;11328;53.928;18.522;2023-02-01T08:27:01;3.60;99.90
22321;DHT22;11328;53.928;18.522;2023-02-01T08:29:29;3.70;99.90
22321;DHT22;11328;53.928;18.522;2023-02-01T08:31:57;3.70;99.90
22321;DHT22;11328;53.928;18.522;2023-02-01T08:34:24;3.70;99.90
22321;DHT22;11328;53.928;18.522;2023-02-01T08:36:52;3.70;99.90
22321;DHT22;11328;53.928;18.522;2023-02-01T08:39:29;3.80;99.90
22321;DHT22;11328;53.928;18.522;2023-02-01T08:41:56;3.80;99.90
22321;DHT22;11328;53.928;18.522;2023-02-01T08:44:42;3.70;99.90
22321;DHT22;11328;53.928;18.522;2023-02-01T08:47:09;3.80;99.90
22321;DHT22;11328;53.928;18.522;2023-02-01T08:49:38;3.90;99.90
22321;DHT22;11328;53.928;18.522;2023-02-01T08:52:05;3.90;99.90
22321;DHT22;11328;53.928;18.522;2023-02-01T08:54:41;3.90;99.90
22321;DHT22;11328;53.928;18.522;2023-02-01T08:57:08;4.00;99.90
22321;DHT22;11328;53.928;18.522;2023-02-01T08:59:36;4.00;99.90
22321;DHT22;11328;53.928;18.522;2023-02-01T09:02:03;3.90;99.90
22321;DHT22;11328;53.928;18.522;2023-02-01T09:04:30;3.90;99.90
22321;DHT22;11328;53.928;18.522;2023-02-01T09:06:58;3.90;99.90
22321;DHT22;11328;53.928;18.522;2023-02-01T09:09:27;4.00;99.90
22321;DHT22;11328;53.928;18.522;2023-02-01T09:11:55;4.00;99.90
22321;DHT22;11328;53.928;18.522;2023-02-01T09:14:22;4.00;99.90
22321;DHT22;11328;53.928;18.522;2023-02-01T09:16:49;4.20;99.90
22321;DHT22;11328;53.928;18.522;2023-02-01T09:19:16;4.20;99.90
22321;DHT22;11328;53.928;18.522;2023-02-01T09:21:52;4.10;99.90
22321;DHT22;11328;53.928;18.522;2023-02-01T09:24:20;4.10;99.90
22321;DHT22;11328;53.928;18.522;2023-02-01T09:26:47;4.20;99.90
22321;DHT22;11328;53.928;18.522;2023-02-01T09:29:14;4.20;99.90
22321;DHT22;11328;53.928;18.522;2023-02-01T09:31:41;4.10;99.90
22321;DHT22;11328;53.928;18.522;2023-02-01T09:34:23;4.20;99.90
22321;DHT22;11328;53.928;18.522;2023-02-01T09:36:50;4.30;99.90
22321;DHT22;11328;53.928;18.522;2023-02-01T09:39:17;4.20;99.90
22321;DHT22;11328;53.928;18.522;2023-02-01T09:47:21;4.30;99.90
22321;DHT22;11328;53.928;18.522;2023-02-01T09:49:55;4.50;99.90
22321;DHT22;11328;53.928;18.522;2023-02-01T09:52:38;4.40;99.90
22321;DHT22;11328;53.928;18.522;2023-02-01T10:14:11;4.90;99.90
22321;DHT22;11328;53.928;18.522;2023-02-01T10:22:51;4.80;99.90
22321;DHT22;11328;53.928;18.522;2023-02-01T10:28:52;4.80;99.90
22321;DHT22;11328;53.928;18.522;2023-02-01T10:31:30;4.90;99.90
22321;DHT22;11328;53.928;18.522;2023-02-01T10:34:26;5.00;99.90
22321;DHT22;11328;53.928;18.522;2023-02-01T10:37:01;4.90;99.90
22321;DHT22;11328;53.928;18.522;2023-02-01T10:50:53;4.90;99.90
22321;DHT22;11328;53.928;18.522;2023-02-01T10:56:08;5.20;99.90
22321;DHT22;11328;53.928;18.522;2023-02-01T10:58:44;5.20;99.90
22321;DHT22;11328;53.928;18.522;2023-02-01T11:58:26;4.80;99.90
22321;DHT22;11328;53.928;18.522;2023-02-01T12:06:57;4.80;99.90
22321;DHT22;11328;53.928;18.522;2023-02-01T12:09:39;4.80;99.90
22321;DHT22;11328;53.928;18.522;2023-02-01T12:12:24;4.80;99.90
22321;DHT22;11328;53.928;18.522;2023-02-01T12:24:22;5.00;99.90
22321;DHT22;11328;53.928;18.522;2023-02-01T12:38:54;5.00;99.90
22321;DHT22;11328;53.928;18.522;2023-02-01T12:41:55;4.90;99.90
22321;DHT22;11328;53.928;18.522;2023-02-01T12:47:44;5.00;99.90
22321;DHT22;11328;53.928;18.522;2023-02-01T12:53:09;4.90;99.90
22321;DHT22;11328;53.928;18.522;2023-02-01T12:55:55;4.70;99.90
22321;DHT22;11328;53.928;18.522;2023-02-01T13:01:35;4.70;99.90
22321;DHT22;11328;53.928;18.522;2023-02-01T13:04:12;4.70;99.90
22321;DHT22;11328;53.928;18.522;2023-02-01T13:06:57;4.70;99.90
22321;DHT22;11328;53.928;18.522;2023-02-01T13:09:45;4.80;99.90
22321;DHT22;11328;53.928;18.522;2023-02-01T13:13:10;4.80;99.90
22321;DHT22;11328;53.928;18.522;2023-02-01T13:15:46;4.80;99.90
22321;DHT22;11328;53.928;18.522;2023-02-01T13:18:20;4.70;99.90
22321;DHT22;11328;53.928;18.522;2023-02-01T13:20:55;4.80;99.90
22321;DHT22;11328;53.928;18.522;2023-02-01T13:23:31;4.70;99.90
22321;DHT22;11328;53.928;18.522;2023-02-01T13:26:02;4.60;99.90
22321;DHT22;11328;53.928;18.522;2023-02-01T13:31:22;4.80;99.90
22321;DHT22;11328;53.928;18.522;2023-02-01T13:37:35;4.60;99.90
22321;DHT22;11328;53.928;18.522;2023-02-01T13:43:21;4.60;99.90
22321;DHT22;11328;53.928;18.522;2023-02-01T13:45:56;4.50;99.90
22321;DHT22;11328;53.928;18.522;2023-02-01T13:51:36;4.60;99.90
22321;DHT22;11328;53.928;18.522;2023-02-01T13:54:07;4.50;99.90
22321;DHT22;11328;53.928;18.522;2023-02-01T13:56:52;4.50;99.90
22321;DHT22;11328;53.928;18.522;2023-02-01T14:05:12;4.60;99.90
22321;DHT22;11328;53.928;18.522;2023-02-01T14:10:49;4.60;99.90
22321;DHT22;11328;53.928;18.522;2023-02-01T14:13:40;4.60;99.90
22321;DHT22;11328;53.928;18.522;2023-02-01T14:16:15;4.70;99.90
22321;DHT22;11328;53.928;18.522;2023-02-01T14:31:54;4.40;99.90
22321;DHT22;11328;53.928;18.522;2023-02-01T14:47:52;4.40;99.90
22321;DHT22;11328;53.928;18.522;2023-02-01T14:50:35;4.40;99.90
22321;DHT22;11328;53.928;18.522;2023-02-01T14:55:52;4.40;99.90
22321;DHT22;11328;53.928;18.522;2023-02-01T15:04:11;4.30;99.90
22321;DHT22;11328;53.928;18.522;2023-02-01T15:06:57;4.20;99.90
22321;DHT22;11328;53.928;18.522;2023-02-01T15:14:46;4.20;99.90
22321;DHT22;11328;53.928;18.522;2023-02-01T15:17:30;4.10;99.90
22321;DHT22;11328;53.928;18.522;2023-02-01T15:22:39;4.00;99.90
22321;DHT22;11328;53.928;18.522;2023-02-01T15:25:17;4.00;99.90
22321;DHT22;11328;53.928;18.522;2023-02-01T15:27:47;3.90;99.90
22321;DHT22;11328;53.928;18.522;2023-02-01T15:30:20;3.90;99.90
22321;DHT22;11328;53.928;18.522;2023-02-01T15:33:03;3.90;99.90
22321;DHT22;11328;53.928;18.522;2023-02-01T15:35:38;3.90;99.90
22321;DHT22;11328;53.928;18.522;2023-02-01T15:49:03;3.90;99.90
22321;DHT22;11328;53.928;18.522;2023-02-01T15:51:32;3.90;99.90
22321;DHT22;11328;53.928;18.522;2023-02-01T15:54:03;4.00;99.90
22321;DHT22;11328;53.928;18.522;2023-02-01T15:56:38;3.90;99.90
22321;DHT22;11328;53.928;18.522;2023-02-01T15:59:16;4.00;99.90
22321;DHT22;11328;53.928;18.522;2023-02-01T16:01:45;4.00;99.90
22321;DHT22;11328;53.928;18.522;2023-02-01T16:06:58;4.10;99.90
22321;DHT22;11328;53.928;18.522;2023-02-01T16:09:40;4.10;99.90
22321;DHT22;11328;53.928;18.522;2023-02-01T16:12:45;4.10;99.90
22321;DHT22;11328;53.928;18.522;2023-02-01T16:15:14;4.10;99.90
22321;DHT22;11328;53.928;18.522;2023-02-01T16:17:41;4.10;99.90
22321;DHT22;11328;53.928;18.522;2023-02-01T16:20:10;4.20;99.90
22321;DHT22;11328;53.928;18.522;2023-02-01T16:22:38;4.20;99.90
22321;DHT22;11328;53.928;18.522;2023-02-01T16:25:05;4.20;99.90
22321;DHT22;11328;53.928;18.522;2023-02-01T16:27:32;4.30;99.90
22321;DHT22;11328;53.928;18.522;2023-02-01T16:30:02;4.30;99.90
22321;DHT22;11328;53.928;18.522;2023-02-01T16:32:30;4.30;99.90
22321;DHT22;11328;53.928;18.522;2023-02-01T16:34:57;4.30;99.90
22321;DHT22;11328;53.928;18.522;2023-02-01T16:37:25;4.30;99.90
22321;DHT22;11328;53.928;18.522;2023-02-01T16:39:54;4.30;99.90
22321;DHT22;11328;53.928;18.522;2023-02-01T16:42:21;4.40;99.90
22321;DHT22;11328;53.928;18.522;2023-02-01T16:44:48;4.30;99.90
22321;DHT22;11328;53.928;18.522;2023-02-01T16:47:18;4.40;99.90
22321;DHT22;11328;53.928;18.522;2023-02-01T16:49:49;4.40;99.90
22321;DHT22;11328;53.928;18.522;2023-02-01T16:52:21;4.40;99.90
22321;DHT22;11328;53.928;18.522;2023-02-01T16:54:51;4.50;99.90
22321;DHT22;11328;53.928;18.522;2023-02-01T16:57:20;4.40;99.90
22321;DHT22;11328;53.928;18.522;2023-02-01T16:59:50;4.40;99.90
22321;DHT22;11328;53.928;18.522;2023-02-01T17:02:19;4.30;99.90
22321;DHT22;11328;53.928;18.522;2023-02-01T17:04:47;4.40;99.90
22321;DHT22;11328;53.928;18.522;2023-02-01T17:07:16;4.40;99.90
22321;DHT22;11328;53.928;18.522;2023-02-01T17:09:46;4.40;99.90
22321;DHT22;11328;53.928;18.522;2023-02-01T17:12:25;4.50;99.90
22321;DHT22;11328;53.928;18.522;2023-02-01T17:14:53;4.60;99.90
22321;DHT22;11328;53.928;18.522;2023-02-01T17:17:21;4.70;99.90
22321;DHT22;11328;53.928;18.522;2023-02-01T17:20:04;4.60;99.90
22321;DHT22;11328;53.928;18.522;2023-02-01T17:22:32;4.50;99.90
22321;DHT22;11328;53.928;18.522;2023-02-01T17:24:59;4.60;99.90
22321;DHT22;11328;53.928;18.522;2023-02-01T17:27:26;4.50;99.90
22321;DHT22;11328;53.928;18.522;2023-02-01T17:29:55;4.50;99.90
22321;DHT22;11328;53.928;18.522;2023-02-01T17:32:23;4.50;99.90
22321;DHT22;11328;53.928;18.522;2023-02-01T17:34:52;4.50;99.90
22321;DHT22;11328;53.928;18.522;2023-02-01T17:37:24;4.50;99.90
22321;DHT22;11328;53.928;18.522;2023-02-01T17:39:52;4.60;99.90
22321;DHT22;11328;53.928;18.522;2023-02-01T17:42:24;4.60;99.90
22321;DHT22;11328;53.928;18.522;2023-02-01T17:44:56;4.70;99.90
22321;DHT22;11328;53.928;18.522;2023-02-01T17:47:25;4.70;99.90
22321;DHT22;11328;53.928;18.522;2023-02-01T17:49:52;4.70;99.90
22321;DHT22;11328;53.928;18.522;2023-02-01T17:52:24;4.70;99.90
22321;DHT22;11328;53.928;18.522;2023-02-01T17:54:51;4.70;99.90
22321;DHT22;11328;53.928;18.522;2023-02-01T17:57:20;4.80;99.90
22321;DHT22;11328;53.928;18.522;2023-02-01T17:59:47;4.80;99.90
22321;DHT22;11328;53.928;18.522;2023-02-01T18:02:22;4.80;99.90
22321;DHT22;11328;53.928;18.522;2023-02-01T18:04:51;4.80;99.90
22321;DHT22;11328;53.928;18.522;2023-02-01T18:07:18;4.70;99.90
22321;DHT22;11328;53.928;18.522;2023-02-01T18:09:47;4.80;99.90
22321;DHT22;11328;53.928;18.522;2023-02-01T18:12:21;4.80;99.90
22321;DHT22;11328;53.928;18.522;2023-02-01T18:14:51;4.80;99.90
22321;DHT22;11328;53.928;18.522;2023-02-01T18:17:17;4.70;99.90
22321;DHT22;11328;53.928;18.522;2023-02-01T18:19:45;4.70;99.90
22321;DHT22;11328;53.928;18.522;2023-02-01T18:22:16;4.60;99.90
22321;DHT22;11328;53.928;18.522;2023-02-01T18:24:46;4.60;99.90
22321;DHT22;11328;53.928;18.522;2023-02-01T18:27:13;4.50;99.90
22321;DHT22;11328;53.928;18.522;2023-02-01T18:29:40;4.50;99.90
22321;DHT22;11328;53.928;18.522;2023-02-01T18:32:08;4.50;99.90
22321;DHT22;11328;53.928;18.522;2023-02-01T18:34:36;4.60;99.90
22321;DHT22;11328;53.928;18.522;2023-02-01T18:37:03;4.40;99.90
22321;DHT22;11328;53.928;18.522;2023-02-01T18:39:30;4.50;99.90
22321;DHT22;11328;53.928;18.522;2023-02-01T18:41:57;4.50;99.90
22321;DHT22;11328;53.928;18.522;2023-02-01T18:44:25;4.40;99.90
22321;DHT22;11328;53.928;18.522;2023-02-01T18:46:52;4.30;99.90
22321;DHT22;11328;53.928;18.522;2023-02-01T18:49:19;4.40;99.90
22321;DHT22;11328;53.928;18.522;2023-02-01T18:51:46;4.50;99.90
22321;DHT22;11328;53.928;18.522;2023-02-01T18:54:13;4.50;99.90
22321;DHT22;11328;53.928;18.522;2023-02-01T18:56:40;4.50;99.90
22321;DHT22;11328;53.928;18.522;2023-02-01T18:59:08;4.40;99.90
22321;DHT22;11328;53.928;18.522;2023-02-01T19:01:37;4.50;99.90
22321;DHT22;11328;53.928;18.522;2023-02-01T19:04:04;4.60;99.90
22321;DHT22;11328;53.928;18.522;2023-02-01T19:06:50;4.50;99.90
22321;DHT22;11328;53.928;18.522;2023-02-01T19:09:17;4.40;99.90
22321;DHT22;11328;53.928;18.522;2023-02-01T19:11:44;4.40;99.90
22321;DHT22;11328;53.928;18.522;2023-02-01T19:14:11;4.40;99.90
22321;DHT22;11328;53.928;18.522;2023-02-01T19:16:38;4.40;99.90
22321;DHT22;11328;53.928;18.522;2023-02-01T19:19:05;4.30;99.90
22321;DHT22;11328;53.928;18.522;2023-02-01T19:21:32;4.30;99.90
22321;DHT22;11328;53.928;18.522;2023-02-01T19:23:59;4.30;99.90
22321;DHT22;11328;53.928;18.522;2023-02-01T19:26:26;4.40;99.90
22321;DHT22;11328;53.928;18.522;2023-02-01T19:28:53;4.30;99.90
22321;DHT22;11328;53.928;18.522;2023-02-01T19:31:20;4.30;99.90
22321;DHT22;11328;53.928;18.522;2023-02-01T19:33:47;4.30;99.90
22321;DHT22;11328;53.928;18.522;2023-02-01T19:36:14;4.30;99.90
22321;DHT22;11328;53.928;18.522;2023-02-01T19:38:41;4.30;99.90
22321;DHT22;11328;53.928;18.522;2023-02-01T19:41:07;4.20;99.90
22321;DHT22;11328;53.928;18.522;2023-02-01T19:43:34;4.30;99.90
22321;DHT22;11328;53.928;18.522;2023-02-01T19:46:02;4.30;99.90
22321;DHT22;11328;53.928;18.522;2023-02-01T19:48:30;4.20;99.90
22321;DHT22;11328;53.928;18.522;2023-02-01T19:50:57;4.30;99.90
22321;DHT22;11328;53.928;18.522;2023-02-01T19:53:25;4.20;99.90
22321;DHT22;11328;53.928;18.522;2023-02-01T19:55:54;4.20;99.90
22321;DHT22;11328;53.928;18.522;2023-02-01T19:58:24;4.20;99.90
22321;DHT22;11328;53.928;18.522;2023-02-01T20:00:55;4.10;99.90
22321;DHT22;11328;53.928;18.522;2023-02-01T20:03:24;4.10;99.90
22321;DHT22;11328;53.928;18.522;2023-02-01T20:05:56;4.10;99.90
22321;DHT22;11328;53.928;18.522;2023-02-01T20:08:25;4.00;99.90
22321;DHT22;11328;53.928;18.522;2023-02-01T20:10:52;4.00;99.90
22321;DHT22;11328;53.928;18.522;2023-02-01T20:13:19;3.90;99.90
22321;DHT22;11328;53.928;18.522;2023-02-01T20:15:46;3.80;99.90
22321;DHT22;11328;53.928;18.522;2023-02-01T20:18:13;3.90;99.90
22321;DHT22;11328;53.928;18.522;2023-02-01T20:20:41;3.90;99.90
22321;DHT22;11328;53.928;18.522;2023-02-01T20:23:08;3.90;99.90
22321;DHT22;11328;53.928;18.522;2023-02-01T20:25:36;3.90;99.90
22321;DHT22;11328;53.928;18.522;2023-02-01T20:28:03;3.90;99.90